首页
METAR-TAF:

METAR-TAF

机场 :

Peachtree City Airport (Falcon Field)

亚特兰大, 喬治亞, 美国

纬度: 33-21-19N, 经度: 084-34-01W, 海拔: 246米

当前天气观测

该预报发布于16分钟前的08:23 UTC
静风
温度 11°C
湿度 82%
气压 1012 hPa
能見度: 16.1公里
少量云层高于800英尺
多云层高于3400英尺
阴天层高于11000英尺
小雨

METAR: KFFC 170823Z AUTO 00000KT 10SM -RA FEW008 BKN034 OVC110 11/08 A2988 RMK AO2 RAB14 P0000 T01060083

时间: 03:39 (08:39 UTC)


TAF: 丢失

超过4000个机场的气象观测和天气预报(METAR&TAF报告)。

可查询的气象台以黄色和红色小点在地图上表示。

将鼠标移到小点上方,可查看气象台名称。

然后点击查看天气观测和预报。

如需切换地图:点击带黑十字的绿色按钮放大地图;点击带横线的绿色按钮缩小地图;或者点击绿色箭头查看邻近地区的地图。


METAR-TAF: